Time;durP1;ratioP1;P1;durP2;ratioP2;P2;SDS_P1;SDS_P2;PMS_P1;PMS_P2;Temp;Humidity;BMP_temperature;BMP_pressure;BME280_temperature;BME280_humidity;BME280_pressure;Samples;Min_cycle;Max_cycle;Signal;HPM_P1;HPM_P2
2022/06/07 00:02:30;;;;;;;2.67;0.77;;;17.30;80.60;;;;;;4952068;28;20028;-77
2022/06/07 00:05:14;;;;;;;1.45;0.82;;;17.30;80.60;;;;;;4951541;29;20028;-78
2022/06/07 00:07:39;;;;;;;2.05;1.05;;;17.10;80.80;;;;;;4936799;29;20672;-77
2022/06/07 00:10:05;;;;;;;5.53;1.25;;;17.20;81.10;;;;;;4936707;29;20031;-77
2022/06/07 00:12:31;;;;;;;3.75;1.45;;;17.20;80.90;;;;;;4951192;29;20122;-77
2022/06/07 00:14:57;;;;;;;6.05;1.48;;;17.20;81.00;;;;;;4935350;29;20028;-77
2022/06/07 00:17:22;;;;;;;4.13;1.25;;;17.00;81.10;;;;;;4951199;29;20028;-77
2022/06/07 00:19:48;;;;;;;3.20;1.25;;;17.00;81.30;;;;;;4950807;28;20043;-77
2022/06/07 00:22:21;;;;;;;2.13;0.90;;;17.00;81.10;;;;;;4946962;28;20031;-78
2022/06/07 00:24:47;;;;;;;4.03;1.23;;;17.00;81.00;;;;;;4951349;29;20079;-77
2022/06/07 00:27:13;;;;;;;4.60;1.20;;;17.00;80.80;;;;;;4936396;29;20035;-78
2022/06/07 00:29:40;;;;;;;2.40;1.23;;;16.80;81.10;;;;;;4935432;29;20059;-77
2022/06/07 00:32:08;;;;;;;5.97;1.10;;;16.80;80.90;;;;;;4944282;29;20055;-78
2022/06/07 00:34:34;;;;;;;4.00;1.38;;;16.80;81.20;;;;;;4954211;28;20633;-78
2022/06/07 00:37:01;;;;;;;2.38;1.25;;;16.80;81.20;;;;;;4948852;28;20024;-78
2022/06/07 00:39:27;;;;;;;5.10;1.45;;;16.80;81.30;;;;;;4936313;29;20037;-77
2022/06/07 00:41:53;;;;;;;6.35;1.63;;;16.80;81.40;;;;;;4950779;28;20134;-77
2022/06/07 00:44:32;;;;;;;4.13;1.48;;;16.90;81.20;;;;;;4936280;29;20031;-77
2022/06/07 00:47:10;;;;;;;3.35;1.30;;;16.90;80.90;;;;;;4951229;29;20446;-77
2022/06/07 00:49:46;;;;;;;4.78;1.30;;;16.80;81.30;;;;;;4939903;29;20062;-78
2022/06/07 00:52:13;;;;;;;3.28;1.00;;;16.80;81.20;;;;;;4955226;28;20640;-78
2022/06/07 00:54:39;;;;;;;5.32;1.58;;;16.80;81.40;;;;;;4955363;28;20035;-77
2022/06/07 00:57:05;;;;;;;3.33;1.55;;;16.70;82.00;;;;;;4950462;28;20056;-77
2022/06/07 00:59:31;;;;;;;4.82;1.27;;;16.80;81.60;;;;;;4939582;29;20042;-77
2022/06/07 01:02:02;;;;;;;3.10;1.50;;;16.80;81.40;;;;;;4954977;28;20104;-78
2022/06/07 01:04:28;;;;;;;4.68;1.45;;;16.80;81.20;;;;;;4940184;29;20035;-78
2022/06/07 01:12:26;;;;;;;4.43;1.65;;;16.70;81.60;;;;;;4939904;29;20087;-78
2022/06/07 01:14:52;;;;;;;4.47;1.40;;;16.70;81.30;;;;;;4939961;29;20067;-78
2022/06/07 01:17:19;;;;;;;2.63;1.33;;;16.70;81.60;;;;;;4938665;29;20043;-77
2022/06/07 01:19:45;;;;;;;5.30;1.65;;;16.70;81.50;;;;;;4939697;29;20024;-77
2022/06/07 01:22:11;;;;;;;4.03;1.55;;;16.70;81.70;;;;;;4958578;29;20394;-77
2022/06/07 01:24:38;;;;;;;7.00;1.40;;;16.80;81.50;;;;;;4941707;28;20032;-77
2022/06/07 01:27:05;;;;;;;4.35;1.40;;;16.70;81.40;;;;;;4939139;29;20502;-77
2022/06/07 01:29:31;;;;;;;4.95;1.95;;;16.70;81.40;;;;;;4954248;28;20051;-77
2022/06/07 01:31:57;;;;;;;5.93;1.48;;;16.70;81.40;;;;;;4938342;29;20028;-77
2022/06/07 01:34:22;;;;;;;3.40;1.20;;;16.70;81.50;;;;;;4958533;28;20139;-77
2022/06/07 01:36:48;;;;;;;4.32;1.60;;;16.70;81.40;;;;;;4958021;28;20033;-78
2022/06/07 01:42:08;;;;;;;4.43;1.42;;;16.70;81.70;;;;;;4958374;29;20118;-77
2022/06/07 01:44:42;;;;;;;3.78;1.38;;;16.80;81.50;;;;;;4958516;28;20058;-77
2022/06/07 01:47:11;;;;;;;4.03;1.40;;;16.80;81.30;;;;;;4955684;28;20030;-77
2022/06/07 01:49:37;;;;;;;5.57;1.50;;;16.80;81.30;;;;;;4958313;28;20530;-78
2022/06/07 01:52:05;;;;;;;8.88;1.60;;;16.90;81.10;;;;;;4958468;28;20023;-77
2022/06/07 01:54:31;;;;;;;5.38;1.38;;;16.80;81.30;;;;;;4957159;28;20035;-77
2022/06/07 01:56:56;;;;;;;4.72;1.92;;;16.80;81.60;;;;;;4939090;28;20110;-78
2022/06/07 01:59:40;;;;;;;5.85;1.77;;;16.80;81.40;;;;;;4953879;28;20495;-78
2022/06/07 02:02:07;;;;;;;5.05;1.45;;;16.80;81.40;;;;;;4937612;29;20019;-78
2022/06/07 02:04:46;;;;;;;4.32;1.77;;;16.90;81.50;;;;;;4938946;29;20051;-77
2022/06/07 02:07:13;;;;;;;6.93;1.80;;;16.90;81.10;;;;;;4938954;29;20051;-78
2022/06/07 02:09:39;;;;;;;4.95;1.65;;;16.80;81.10;;;;;;4938657;29;20038;-77
2022/06/07 02:12:05;;;;;;;3.78;1.45;;;16.80;81.40;;;;;;4938747;29;20035;-78
2022/06/07 02:14:31;;;;;;;3.80;1.65;;;16.80;81.50;;;;;;4938857;29;20040;-78
2022/06/07 02:16:57;;;;;;;7.15;2.00;;;16.80;81.40;;;;;;4938699;29;20028;-78
2022/06/07 02:19:23;;;;;;;7.88;1.45;;;16.80;81.10;;;;;;4937268;29;20114;-78
2022/06/07 02:21:51;;;;;;;4.57;1.15;;;16.80;81.30;;;;;;4954471;28;20031;-77
2022/06/07 02:24:17;;;;;;;4.03;1.20;;;16.70;81.60;;;;;;4938393;29;20546;-78
2022/06/07 02:26:51;;;;;;;4.75;2.03;;;16.70;81.70;;;;;;4956797;28;20035;-78
2022/06/07 02:29:18;;;;;;;3.33;1.20;;;16.70;81.50;;;;;;4957688;28;20034;-77
2022/06/07 02:31:51;;;;;;;3.72;1.55;;;16.80;81.30;;;;;;4956393;29;20031;-78
2022/06/07 02:34:20;;;;;;;4.68;1.20;;;16.80;81.60;;;;;;4957567;28;20035;-78
2022/06/07 02:36:49;;;;;;;3.00;1.35;;;16.80;81.20;;;;;;4957236;28;20027;-78
2022/06/07 02:39:19;;;;;;;6.45;1.92;;;16.80;81.00;;;;;;4957475;28;20473;-77
2022/06/07 02:41:46;;;;;;;4.20;1.23;;;16.80;81.00;;;;;;4956062;28;20043;-78
2022/06/07 02:44:12;;;;;;;6.68;1.40;;;16.80;81.40;;;;;;4956284;28;20027;-78
2022/06/07 02:46:37;;;;;;;7.10;1.75;;;16.80;81.50;;;;;;4957380;28;20132;-78
2022/06/07 02:49:03;;;;;;;8.20;1.80;;;16.80;81.60;;;;;;4956195;28;20028;-77
2022/06/07 02:51:29;;;;;;;3.42;1.38;;;16.80;81.60;;;;;;4951174;28;20024;-78
2022/06/07 02:53:56;;;;;;;10.20;1.98;;;16.80;81.50;;;;;;4945788;29;20036;-77
2022/06/07 02:56:25;;;;;;;5.85;1.48;;;16.70;81.70;;;;;;4937952;29;20047;-78
2022/06/07 02:58:51;;;;;;;6.85;1.75;;;16.70;81.70;;;;;;4937768;29;20024;-78
2022/06/07 03:01:16;;;;;;;5.43;1.88;;;16.60;82.10;;;;;;4937817;29;20027;-78
2022/06/07 03:03:42;;;;;;;5.32;1.25;;;16.50;82.10;;;;;;4948953;29;20035;-78
2022/06/07 03:06:08;;;;;;;6.50;1.75;;;16.50;82.20;;;;;;4956977;28;20024;-77
2022/06/07 03:08:34;;;;;;;5.10;1.70;;;16.60;82.00;;;;;;4957001;28;20034;-78
2022/06/07 03:11:00;;;;;;;6.65;1.80;;;16.60;82.00;;;;;;4956860;28;20031;-77
2022/06/07 03:13:29;;;;;;;4.22;1.42;;;16.60;82.00;;;;;;4941680;28;20035;-78
2022/06/07 03:15:55;;;;;;;4.13;1.45;;;16.70;81.80;;;;;;4937683;29;20699;-78
2022/06/07 03:18:20;;;;;;;5.13;1.63;;;16.60;81.90;;;;;;4948065;29;20065;-77
2022/06/07 03:20:47;;;;;;;6.82;2.08;;;16.70;82.20;;;;;;4953968;28;20057;-77
2022/06/07 03:23:13;;;;;;;6.22;2.25;;;16.70;82.20;;;;;;4937456;29;20031;-78
2022/06/07 03:25:38;;;;;;;5.07;1.98;;;16.80;81.90;;;;;;4937505;29;20028;-78
2022/06/07 03:28:04;;;;;;;5.18;1.90;;;16.80;81.90;;;;;;4936063;29;20597;-78
2022/06/07 03:30:30;;;;;;;7.93;1.88;;;16.80;82.10;;;;;;4944983;29;20834;-78
2022/06/07 03:32:58;;;;;;;6.93;2.13;;;16.70;82.20;;;;;;4955290;29;20035;-78
2022/06/07 03:35:23;;;;;;;6.72;1.55;;;16.80;82.00;;;;;;4956547;28;20046;-78
2022/06/07 03:37:49;;;;;;;3.85;1.70;;;16.80;82.20;;;;;;4943620;28;20063;-77
2022/06/07 03:40:42;;;;;;;9.27;2.33;;;16.70;82.30;;;;;;4935907;29;20031;-78
2022/06/07 03:43:02;;;;;;;4.70;1.50;;;16.80;82.20;;;;;;4937079;29;20486;-78
2022/06/07 03:45:29;;;;;;;2.28;1.45;;;16.80;82.30;;;;;;4936789;29;20024;-78
2022/06/07 03:47:54;;;;;;;6.90;2.10;;;16.80;82.20;;;;;;4936021;29;20115;-78
2022/06/07 03:50:20;;;;;;;2.63;1.23;;;16.80;82.20;;;;;;4951718;29;20035;-77
2022/06/07 03:53:00;;;;;;;2.20;0.98;;;16.80;82.20;;;;;;4937000;29;20067;-78
2022/06/07 03:55:25;;;;;;;6.97;1.70;;;16.80;82.20;;;;;;4935855;29;20032;-77
2022/06/07 03:57:51;;;;;;;5.35;1.75;;;16.80;83.10;;;;;;4936767;29;20726;-78
2022/06/07 04:00:17;;;;;;;4.55;1.75;;;16.80;82.10;;;;;;4951326;29;20063;-78
2022/06/07 04:02:42;;;;;;;3.13;1.50;;;16.70;82.00;;;;;;4936870;29;20098;-78
2022/06/07 04:05:08;;;;;;;5.15;1.95;;;16.70;82.10;;;;;;4936538;29;20034;-78
2022/06/07 04:10:18;;;;;;;9.05;2.47;;;16.50;81.60;;;;;;4937062;29;20051;-77
2022/06/07 04:12:44;;;;;;;4.03;1.20;;;16.50;81.80;;;;;;4936578;29;20028;-78
2022/06/07 04:15:10;;;;;;;6.68;2.15;;;16.40;82.00;;;;;;4936734;29;20106;-78
2022/06/07 04:17:36;;;;;;;4.53;1.55;;;16.40;82.00;;;;;;4940211;29;20106;-78
2022/06/07 04:20:02;;;;;;;5.53;1.35;;;16.50;82.00;;;;;;4945756;29;20088;-78
2022/06/07 04:22:27;;;;;;;6.97;1.75;;;16.60;82.00;;;;;;4942188;29;20035;-77
2022/06/07 04:24:53;;;;;;;6.28;1.60;;;16.60;81.90;;;;;;4936507;29;20039;-78
2022/06/07 04:27:19;;;;;;;5.35;1.73;;;16.60;81.90;;;;;;4936488;29;20024;-78
2022/06/07 04:29:44;;;;;;;3.28;1.30;;;16.60;81.90;;;;;;4936694;29;20059;-78
2022/06/07 04:32:12;;;;;;;7.22;1.75;;;16.50;81.70;;;;;;4943336;28;20023;-78
2022/06/07 04:34:38;;;;;;;4.47;1.67;;;16.50;82.10;;;;;;4941833;29;20030;-78
2022/06/07 04:37:05;;;;;;;4.63;1.75;;;16.50;82.10;;;;;;4954142;28;20038;-78
2022/06/07 04:39:31;;;;;;;4.40;1.50;;;16.60;81.90;;;;;;4948424;28;20067;-77
2022/06/07 04:41:57;;;;;;;5.35;1.52;;;16.60;81.70;;;;;;4935295;29;20051;-78
2022/06/07 04:44:23;;;;;;;6.30;1.95;;;16.60;81.70;;;;;;4936315;29;20098;-78
2022/06/07 04:46:49;;;;;;;9.73;2.00;;;16.60;81.50;;;;;;4936376;29;20052;-77
2022/06/07 04:49:15;;;;;;;7.00;1.90;;;16.60;81.60;;;;;;4951134;28;20094;-78
2022/06/07 04:51:41;;;;;;;7.28;1.83;;;16.50;81.50;;;;;;4936176;29;20039;-77
2022/06/07 04:54:07;;;;;;;6.85;2.22;;;16.60;81.30;;;;;;4951095;29;20030;-77
2022/06/07 04:56:34;;;;;;;3.97;1.48;;;16.70;81.40;;;;;;4950655;29;20021;-78
2022/06/07 04:59:02;;;;;;;4.07;1.88;;;16.70;81.40;;;;;;4935607;28;20099;-77
2022/06/07 05:01:30;;;;;;;6.80;1.50;;;16.70;81.10;;;;;;4950347;28;20537;-76
2022/06/07 05:03:56;;;;;;;6.93;1.40;;;16.80;80.90;;;;;;4963081;28;20069;-77
2022/06/07 05:06:26;;;;;;;4.40;1.48;;;16.80;80.50;;;;;;4948780;28;20027;-78
2022/06/07 05:08:58;;;;;;;5.63;1.63;;;16.80;80.60;;;;;;4952656;28;20023;-76
2022/06/07 05:11:25;;;;;;;3.15;1.65;;;16.80;80.70;;;;;;4952696;29;20038;-77
2022/06/07 05:13:56;;;;;;;6.68;1.48;;;16.80;80.50;;;;;;4953109;28;20052;-76
2022/06/07 05:16:21;;;;;;;;;;;16.80;80.60;;;;;;4936415;29;20526;-77
2022/06/07 05:18:48;;;;;;;5.90;1.73;;;16.90;80.40;;;;;;4936735;29;19914;-77
2022/06/07 05:21:14;;;;;;;2.30;1.33;;;16.90;80.60;;;;;;4950635;29;20438;-77
2022/06/07 05:23:40;;;;;;;4.50;1.50;;;16.90;80.40;;;;;;4955001;28;20039;-78
2022/06/07 05:26:10;;;;;;;8.60;2.03;;;16.90;80.60;;;;;;4936726;28;20024;-82
2022/06/07 05:28:37;;;;;;;6.07;2.10;;;16.80;81.00;;;;;;4952887;29;20035;-78
2022/06/07 05:31:03;;;;;;;7.88;1.90;;;16.90;80.90;;;;;;4952825;29;20035;-79
2022/06/07 05:33:29;;;;;;;9.38;2.08;;;16.90;80.70;;;;;;4953321;28;20046;-78
2022/06/07 05:35:56;;;;;;;8.75;1.80;;;16.90;81.20;;;;;;4951611;28;20039;-78
2022/06/07 05:38:22;;;;;;;5.88;1.90;;;17.00;80.90;;;;;;4964634;28;20650;-78
2022/06/07 05:40:48;;;;;;;8.30;2.20;;;17.10;80.50;;;;;;4948640;29;20580;-79
2022/06/07 05:43:14;;;;;;;3.00;1.35;;;17.20;80.50;;;;;;4948967;28;20031;-78
2022/06/07 05:45:40;;;;;;;2.35;1.35;;;17.20;80.30;;;;;;4962520;28;20024;-78
2022/06/07 05:48:06;;;;;;;8.98;1.70;;;17.30;80.00;;;;;;4950166;28;20555;-78
2022/06/07 05:50:33;;;;;;;5.28;1.58;;;17.30;80.10;;;;;;4957051;28;20031;-79
2022/06/07 05:52:59;;;;;;;7.22;1.45;;;17.30;80.20;;;;;;4957212;28;20035;-78
2022/06/07 05:55:24;;;;;;;6.95;1.73;;;17.30;80.20;;;;;;4949395;28;20091;-78
2022/06/07 05:57:54;;;;;;;4.22;1.85;;;17.30;80.60;;;;;;4947909;29;20103;-77
2022/06/07 06:00:21;;;;;;;4.18;1.58;;;17.30;80.50;;;;;;4952115;28;20388;-77
2022/06/07 06:02:47;;;;;;;7.03;1.48;;;17.30;80.10;;;;;;4955984;28;20039;-77
2022/06/07 06:05:13;;;;;;;6.28;1.55;;;17.40;79.90;;;;;;4969179;28;20031;-77
2022/06/07 06:10:19;;;;;;;2.63;1.27;;;17.40;79.90;;;;;;4956933;28;20015;-77
2022/06/07 06:10:25;;;;;;;3.75;1.73;;;17.50;79.50;;;;;;4955853;28;20031;-76
2022/06/07 06:12:51;;;;;;;3.78;1.10;;;17.60;79.50;;;;;;4954444;29;20034;-75
2022/06/07 06:15:17;;;;;;;7.97;1.50;;;17.50;79.30;;;;;;4956685;28;20028;-76
2022/06/07 06:17:43;;;;;;;2.90;1.58;;;17.70;79.50;;;;;;4957045;28;20036;-75
2022/06/07 06:20:09;;;;;;;2.38;1.42;;;17.80;78.90;;;;;;4954131;28;20036;-76
2022/06/07 06:22:36;;;;;;;3.15;1.50;;;17.80;78.40;;;;;;4956450;28;20016;-75
2022/06/07 06:25:04;;;;;;;3.58;1.50;;;17.70;78.40;;;;;;4971362;28;20409;-76
2022/06/07 06:27:31;;;;;;;5.07;1.75;;;17.70;78.80;;;;;;4956588;28;20019;-76
2022/06/07 06:29:58;;;;;;;4.97;1.38;;;17.70;78.40;;;;;;4955887;28;20031;-76
2022/06/07 06:32:23;;;;;;;4.93;1.30;;;17.70;78.30;;;;;;4954708;28;20028;-76
2022/06/07 06:34:49;;;;;;;7.50;1.45;;;17.70;78.40;;;;;;4956444;28;20023;-76
2022/06/07 06:37:16;;;;;;;5.93;1.40;;;17.60;78.10;;;;;;4954317;28;20033;-76
2022/06/07 06:39:42;;;;;;;6.53;1.60;;;17.60;77.70;;;;;;4954593;28;20450;-78
2022/06/07 06:42:08;;;;;;;4.68;1.65;;;17.70;77.70;;;;;;4954069;28;20071;-78
2022/06/07 06:44:34;;;;;;;3.75;1.50;;;17.80;77.90;;;;;;4952085;29;20439;-78
2022/06/07 06:47:01;;;;;;;3.22;1.23;;;17.70;78.60;;;;;;4937164;29;20015;-78
2022/06/07 06:49:27;;;;;;;5.53;1.70;;;17.80;78.10;;;;;;4937787;29;20062;-78
2022/06/07 06:51:54;;;;;;;7.47;1.58;;;17.70;78.20;;;;;;4938084;29;20060;-78
2022/06/07 06:54:20;;;;;;;3.47;1.00;;;17.80;78.10;;;;;;4962392;28;20055;-78
2022/06/07 06:56:47;;;;;;;5.78;1.75;;;17.80;77.80;;;;;;4936527;29;20402;-78
2022/06/07 06:59:13;;;;;;;5.22;0.98;;;17.80;78.40;;;;;;4937978;28;20035;-78
2022/06/07 07:01:40;;;;;;;4.22;2.15;;;17.70;77.70;;;;;;4937406;29;20037;-78
2022/06/07 07:04:13;;;;;;;5.65;1.50;;;17.80;77.70;;;;;;4951952;29;20027;-78
2022/06/07 07:06:38;;;;;;;5.53;1.50;;;17.90;77.40;;;;;;4952320;28;20475;-78
2022/06/07 07:09:06;;;;;;;7.88;1.63;;;18.10;76.90;;;;;;4937590;29;20438;-78
2022/06/07 07:11:40;;;;;;;4.57;1.08;;;18.40;76.40;;;;;;4946230;29;20034;-78
2022/06/07 07:14:07;;;;;;;3.42;1.45;;;18.80;75.50;;;;;;4954913;28;20015;-78
2022/06/07 07:16:36;;;;;;;3.47;1.33;;;19.00;74.60;;;;;;4971720;28;20039;-78
2022/06/07 07:19:04;;;;;;;6.20;1.40;;;19.30;74.20;;;;;;4971630;28;20019;-78
2022/06/07 07:21:38;;;;;;;6.47;1.85;;;19.40;72.40;;;;;;4955501;29;20704;-78
2022/06/07 07:24:08;;;;;;;2.88;0.93;;;19.50;71.70;;;;;;4956591;28;20027;-78
2022/06/07 07:26:36;;;;;;;7.22;1.00;;;19.80;71.20;;;;;;4956526;28;20539;-78
2022/06/07 07:29:03;;;;;;;3.67;1.10;;;20.10;70.30;;;;;;4955512;29;20050;-78
2022/06/07 07:31:33;;;;;;;5.05;1.25;;;20.10;68.80;;;;;;4956746;28;20027;-78
2022/06/07 07:34:03;;;;;;;3.50;0.88;;;20.10;68.40;;;;;;4956412;28;20023;-78
2022/06/07 07:36:29;;;;;;;2.15;1.13;;;19.90;69.40;;;;;;4954957;28;20038;-78
2022/06/07 07:38:54;;;;;;;6.47;1.55;;;20.00;69.70;;;;;;4954927;28;20066;-78
2022/06/07 07:41:23;;;;;;;5.32;1.17;;;19.80;69.60;;;;;;4956072;28;20090;-78
2022/06/07 07:43:51;;;;;;;4.53;1.20;;;19.80;69.30;;;;;;4951156;28;20087;-78
2022/06/07 07:46:18;;;;;;;6.45;1.73;;;19.70;70.00;;;;;;4951397;29;20031;-78
2022/06/07 07:48:44;;;;;;;3.30;1.70;;;19.70;69.70;;;;;;4937178;29;20028;-78
2022/06/07 07:51:18;;;;;;;9.32;1.52;;;19.80;69.60;;;;;;4936887;29;20067;-78
2022/06/07 07:53:44;;;;;;;2.08;0.98;;;19.80;68.90;;;;;;4936861;29;20028;-78
2022/06/07 07:56:09;;;;;;;6.07;1.35;;;19.80;68.70;;;;;;4936776;29;20086;-78
2022/06/07 07:58:36;;;;;;;3.78;1.30;;;19.80;68.70;;;;;;4951724;29;20046;-78
2022/06/07 08:01:08;;;;;;;4.40;1.13;;;19.90;68.90;;;;;;4936684;29;20103;-78
2022/06/07 08:03:34;;;;;;;3.78;1.10;;;20.70;67.80;;;;;;4936471;29;20052;-79
2022/06/07 08:06:00;;;;;;;6.68;1.38;;;21.00;65.80;;;;;;4936625;29;20087;-78
2022/06/07 08:08:26;;;;;;;6.57;1.30;;;20.60;67.00;;;;;;4955993;28;20511;-78
2022/06/07 08:10:51;;;;;;;3.83;1.20;;;20.50;66.60;;;;;;4939754;29;20027;-78
2022/06/07 08:13:17;;;;;;;5.47;1.67;;;20.20;66.80;;;;;;4950370;28;20023;-78
2022/06/07 08:15:45;;;;;;;5.60;1.05;;;20.20;67.50;;;;;;4935343;29;20067;-78
2022/06/07 08:18:10;;;;;;;7.70;1.30;;;20.10;67.00;;;;;;4936425;29;20032;-78
2022/06/07 08:20:38;;;;;;;6.38;1.50;;;22.60;62.90;;;;;;4942750;28;20045;-77
2022/06/07 08:23:05;;;;;;;6.25;1.00;;;22.30;60.90;;;;;;4954254;29;20031;-78
2022/06/07 08:25:32;;;;;;;6.97;1.20;;;22.30;59.50;;;;;;4937849;28;20027;-77
2022/06/07 08:27:58;;;;;;;3.08;0.98;;;22.30;60.90;;;;;;4936392;29;20089;-77
2022/06/07 08:30:24;;;;;;;3.47;1.20;;;21.80;60.50;;;;;;4936270;29;20114;-78
2022/06/07 08:32:50;;;;;;;3.28;1.15;;;21.80;61.40;;;;;;4942588;29;20043;-78
2022/06/07 08:38:02;;;;;;;4.70;1.10;;;21.60;59.80;;;;;;4949287;29;20122;-77
2022/06/07 08:40:40;;;;;;;3.20;0.80;;;21.30;61.00;;;;;;4936032;28;20076;-77
2022/06/07 08:43:15;;;;;;;3.65;0.88;;;21.10;61.30;;;;;;4936164;29;20028;-77
2022/06/07 08:45:43;;;;;;;6.97;1.00;;;21.20;61.40;;;;;;4934849;29;20028;-77
2022/06/07 08:48:16;;;;;;;3.50;0.90;;;21.00;61.20;;;;;;4951011;29;20020;-77
2022/06/07 08:50:52;;;;;;;2.92;1.08;;;21.20;61.00;;;;;;4936285;29;20035;-77
2022/06/07 08:53:19;;;;;;;2.92;0.85;;;21.80;59.80;;;;;;4936088;29;20020;-77
2022/06/07 08:55:47;;;;;;;6.25;1.23;;;22.20;58.70;;;;;;4936074;29;20032;-77
2022/06/07 08:58:29;;;;;;;6.18;1.10;;;22.30;57.50;;;;;;4935887;29;20031;-77
2022/06/07 09:00:58;;;;;;;2.40;0.88;;;22.00;57.60;;;;;;4947739;29;20134;-78
2022/06/07 09:03:35;;;;;;;3.63;1.00;;;21.60;58.00;;;;;;4953855;28;20078;-78
2022/06/07 09:06:04;;;;;;;5.95;1.00;;;21.20;59.50;;;;;;4954110;28;20094;-78
2022/06/07 09:08:39;;;;;;;4.85;1.35;;;20.80;60.80;;;;;;4936714;28;20027;-77
2022/06/07 09:13:54;;;;;;;4.97;0.98;;;20.30;62.20;;;;;;4955289;29;20475;-77
2022/06/07 09:16:20;;;;;;;2.55;0.80;;;20.00;62.90;;;;;;4936093;28;20115;-77
2022/06/07 09:18:49;;;;;;;3.58;0.90;;;19.90;64.00;;;;;;4951356;28;20118;-77
2022/06/07 09:21:29;;;;;;;2.15;0.80;;;20.20;64.20;;;;;;4950954;29;20055;-77
2022/06/07 09:23:57;;;;;;;4.25;0.90;;;20.60;63.70;;;;;;4973112;28;20075;-77
2022/06/07 09:26:41;;;;;;;6.88;1.02;;;20.80;63.20;;;;;;4958297;28;20367;-78
2022/06/07 09:29:17;;;;;;;2.83;0.80;;;21.20;62.00;;;;;;4939612;29;20091;-78
2022/06/07 09:31:46;;;;;;;5.03;0.70;;;21.30;60.80;;;;;;4954137;28;20063;-77
2022/06/07 09:34:28;;;;;;;3.00;0.65;;;20.90;60.20;;;;;;4972346;28;20032;-77
2022/06/07 09:36:59;;;;;;;2.15;0.75;;;20.90;60.50;;;;;;4945365;28;20032;-78
2022/06/07 09:39:40;;;;;;;2.17;0.70;;;21.00;60.70;;;;;;4939254;29;20110;-77
2022/06/07 09:42:18;;;;;;;3.67;0.88;;;20.80;61.10;;;;;;4953597;28;20063;-78
2022/06/07 09:45:09;;;;;;;2.20;1.13;;;21.00;61.70;;;;;;4939245;29;20039;-77
2022/06/07 09:47:37;;;;;;;1.80;0.57;;;20.80;61.60;;;;;;4953800;29;20028;-78
2022/06/07 09:50:38;;;;;;;1.25;0.55;;;20.70;62.80;;;;;;4939239;29;20406;-77
2022/06/07 09:53:10;;;;;;;3.20;0.90;;;20.40;63.90;;;;;;4936148;29;20046;-77
2022/06/07 09:56:05;;;;;;;3.38;0.98;;;20.30;65.00;;;;;;4938724;29;20040;-77
2022/06/07 09:58:49;;;;;;;1.17;0.60;;;21.30;63.40;;;;;;4939053;29;20591;-78
2022/06/07 10:01:32;;;;;;;1.15;0.40;;;23.20;57.80;;;;;;4938872;29;20042;-78
2022/06/07 10:04:36;;;;;;;3.67;0.90;;;23.10;55.70;;;;;;4958072;28;20023;-78
2022/06/07 10:07:17;;;;;;;2.25;0.77;;;23.30;56.00;;;;;;4956886;28;20059;-78
2022/06/07 10:10:01;;;;;;;4.45;0.68;;;23.10;55.70;;;;;;4942603;28;20058;-78
2022/06/07 10:13:03;;;;;;;1.90;0.82;;;23.20;56.40;;;;;;4949207;29;20039;-78
2022/06/07 10:15:34;;;;;;;3.40;0.63;;;22.80;57.10;;;;;;4938813;29;20039;-78
2022/06/07 10:18:24;;;;;;;4.43;0.90;;;22.90;56.30;;;;;;4938758;29;20032;-78
2022/06/07 10:21:09;;;;;;;3.22;0.73;;;22.70;57.70;;;;;;4961667;28;20058;-78
2022/06/07 10:23:56;;;;;;;5.20;0.85;;;22.50;58.10;;;;;;4955612;28;20050;-78
2022/06/07 10:26:42;;;;;;;2.15;0.75;;;22.30;58.90;;;;;;4946567;28;20035;-77
2022/06/07 10:29:26;;;;;;;7.10;1.27;;;21.80;59.70;;;;;;4938234;29;20479;-78
2022/06/07 10:32:00;;;;;;;5.07;0.90;;;21.50;62.90;;;;;;4952379;29;20039;-78
2022/06/07 10:35:06;;;;;;;2.13;1.02;;;21.20;65.40;;;;;;4938269;29;20030;-78
2022/06/07 10:38:11;;;;;;;6.50;1.00;;;21.40;65.40;;;;;;4937703;29;20047;-78
2022/06/07 10:40:57;;;;;;;3.97;1.10;;;22.00;63.50;;;;;;4937033;29;20131;-78
2022/06/07 10:43:28;;;;;;;3.25;1.08;;;22.40;61.40;;;;;;4938052;29;20028;-78
2022/06/07 10:46:00;;;;;;;5.10;1.23;;;23.10;61.40;;;;;;4938077;29;20784;-78
2022/06/07 10:48:40;;;;;;;3.53;0.77;;;23.30;59.80;;;;;;4938146;29;20016;-78
2022/06/07 10:52:20;;;;;;;7.10;0.80;;;23.40;59.10;;;;;;4938549;29;20024;-78
2022/06/07 10:54:03;;;;;;;5.22;0.98;;;23.50;57.20;;;;;;4938136;29;20024;-77
2022/06/07 10:56:35;;;;;;;3.72;0.90;;;23.30;56.40;;;;;;4952498;28;20099;-77
2022/06/07 10:59:08;;;;;;;2.35;0.80;;;22.80;56.60;;;;;;4938094;29;20063;-78
2022/06/07 11:01:46;;;;;;;3.47;0.82;;;22.60;57.90;;;;;;4952682;29;20042;-77
2022/06/07 11:10:27;;;;;;;5.47;1.30;;;22.50;57.40;;;;;;4937839;29;20409;-77
2022/06/07 11:13:13;;;;;;;2.42;0.68;;;22.30;57.70;;;;;;4937489;29;20090;-78
2022/06/07 11:15:47;;;;;;;4.53;0.80;;;22.30;58.30;;;;;;4937685;29;20031;-78
2022/06/07 11:18:26;;;;;;;4.70;1.10;;;22.50;58.80;;;;;;4937460;29;20039;-78
2022/06/07 11:21:01;;;;;;;3.05;1.00;;;22.40;57.00;;;;;;4945571;29;20130;-78
2022/06/07 11:23:31;;;;;;;4.85;0.93;;;22.30;57.00;;;;;;4956443;28;20086;-78
2022/06/07 11:26:14;;;;;;;7.63;1.30;;;21.90;58.20;;;;;;4950090;28;20106;-77
2022/06/07 11:28:39;;;;;;;4.30;1.02;;;21.40;61.50;;;;;;4937256;29;20035;-77
2022/06/07 11:31:20;;;;;;;4.97;1.20;;;21.30;63.30;;;;;;4937314;29;20111;-78
2022/06/07 11:33:52;;;;;;;3.33;1.05;;;21.30;65.90;;;;;;4949634;29;20035;-78
2022/06/07 11:36:21;;;;;;;5.85;1.10;;;21.80;64.80;;;;;;4954224;28;20107;-78
2022/06/07 11:39:27;;;;;;;4.10;0.95;;;22.20;63.80;;;;;;4956195;28;20103;-78
2022/06/07 11:41:58;;;;;;;5.45;0.93;;;22.70;63.30;;;;;;4955164;28;20043;-77
2022/06/07 11:44:29;;;;;;;3.42;0.93;;;23.10;60.60;;;;;;4948635;28;20019;-78
2022/06/07 11:47:17;;;;;;;6.47;1.30;;;22.90;59.50;;;;;;4937314;29;20110;-78
2022/06/07 11:49:57;;;;;;;13.15;2.85;;;23.00;58.30;;;;;;4935881;29;20027;-78
2022/06/07 11:52:26;;;;;;;4.63;1.63;;;23.10;58.30;;;;;;4937088;29;20110;-78
2022/06/07 11:55:04;;;;;;;2.93;0.70;;;23.50;58.60;;;;;;4936925;29;20477;-78
2022/06/07 11:57:33;;;;;;;1.50;0.47;;;23.70;58.10;;;;;;4936806;29;20035;-78
2022/06/07 12:00:20;;;;;;;4.80;0.75;;;23.50;56.50;;;;;;4936586;29;20484;-78
2022/06/07 12:02:57;;;;;;;4.80;0.95;;;23.70;56.60;;;;;;4936703;29;20023;-78
2022/06/07 12:05:40;;;;;;;5.65;1.02;;;23.50;56.00;;;;;;4936789;29;20039;-78
2022/06/07 12:08:24;;;;;;;4.97;1.10;;;23.40;55.20;;;;;;4936557;29;20016;-77
2022/06/07 12:11:22;;;;;;;5.55;1.15;;;23.70;56.20;;;;;;4939420;29;20039;-77
2022/06/07 12:13:56;;;;;;;3.50;0.60;;;23.30;55.70;;;;;;4955239;28;20039;-78
2022/06/07 12:16:42;;;;;;;2.72;0.77;;;23.50;55.10;;;;;;4953414;28;20406;-78
2022/06/07 12:19:18;;;;;;;4.50;0.75;;;23.70;54.00;;;;;;4954543;28;20035;-78
2022/06/07 12:22:01;;;;;;;5.18;0.57;;;23.40;53.60;;;;;;4955830;28;20024;-77
2022/06/07 12:24:36;;;;;;;5.20;0.75;;;23.60;53.50;;;;;;4955484;28;20058;-78
2022/06/07 12:27:22;;;;;;;2.38;0.55;;;23.70;52.30;;;;;;4954356;28;20038;-77
2022/06/07 12:29:48;;;;;;;3.17;0.90;;;23.90;54.00;;;;;;4955566;28;20494;-78
2022/06/07 12:32:20;;;;;;;3.42;0.70;;;24.00;53.10;;;;;;4954114;28;20157;-78
2022/06/07 12:34:46;;;;;;;3.67;0.70;;;24.20;53.70;;;;;;4955215;28;20562;-78
2022/06/07 12:37:12;;;;;;;2.13;0.50;;;24.20;51.90;;;;;;4953978;28;20042;-77
2022/06/07 12:39:58;;;;;;;4.97;0.80;;;24.30;53.30;;;;;;4954249;28;20023;-78
2022/06/07 12:42:29;;;;;;;2.90;0.50;;;23.90;51.90;;;;;;4955105;28;20058;-77
2022/06/07 12:45:19;;;;;;;4.80;0.85;;;23.80;54.10;;;;;;4944654;28;20036;-77
2022/06/07 12:47:46;;;;;;;1.42;0.60;;;23.40;55.10;;;;;;4951009;29;20034;-78
2022/06/07 12:50:34;;;;;;;2.33;0.52;;;23.20;54.30;;;;;;4936357;29;20115;-77
2022/06/07 12:53:00;;;;;;;4.15;0.68;;;23.20;53.70;;;;;;4950670;28;20035;-77
2022/06/07 12:55:29;;;;;;;2.97;0.70;;;22.90;54.00;;;;;;4954391;29;20039;-77
2022/06/07 12:58:18;;;;;;;2.13;0.63;;;23.10;54.80;;;;;;4959141;28;20027;-77
2022/06/07 13:00:47;;;;;;;6.97;0.67;;;23.30;53.30;;;;;;4956833;28;20031;-78
2022/06/07 13:03:32;;;;;;;0.85;0.43;;;23.50;54.20;;;;;;4974111;28;20086;-78
2022/06/07 13:06:06;;;;;;;5.25;0.80;;;23.60;53.00;;;;;;4959303;28;20919;-77
2022/06/07 13:08:42;;;;;;;1.75;0.50;;;23.60;53.20;;;;;;4957681;28;20522;-77
2022/06/07 13:11:13;;;;;;;6.40;0.60;;;23.40;52.90;;;;;;4958964;28;20458;-77
2022/06/07 13:13:41;;;;;;;1.85;0.73;;;23.30;54.10;;;;;;4939985;28;20120;-78
2022/06/07 13:16:09;;;;;;;2.25;0.47;;;23.40;54.10;;;;;;4944134;29;20063;-77
2022/06/07 13:18:41;;;;;;;3.63;0.65;;;23.50;53.60;;;;;;4938676;29;20082;-78
2022/06/07 13:21:25;;;;;;;2.45;0.80;;;23.30;53.20;;;;;;4961660;28;20091;-77
2022/06/07 13:23:53;;;;;;;2.97;0.70;;;23.30;52.70;;;;;;4954330;29;20475;-77
2022/06/07 13:26:23;;;;;;;1.70;0.60;;;23.50;52.50;;;;;;4952335;29;20035;-78
2022/06/07 13:29:12;;;;;;;3.25;0.70;;;23.80;53.60;;;;;;4958804;28;20058;-77
2022/06/07 13:31:41;;;;;;;1.75;0.73;;;24.20;53.80;;;;;;4952772;29;20039;-78